Time;durP1;ratioP1;P1;durP2;ratioP2;P2;SDS_P1;SDS_P2;PMS_P1;PMS_P2;Temp;Humidity;BMP_temperature;BMP_pressure;BME280_temperature;BME280_humidity;BME280_pressure;Samples;Min_cycle;Max_cycle;Signal;HPM_P1;HPM_P2
2023/01/08 00:00:46;;;;;;;7.10;3.65;;;10.20;99.90;;;;;;5111709;28;20042;-80
2023/01/08 00:03:12;;;;;;;6.55;4.07;;;10.20;99.90;;;;;;5130231;28;20031;-79
2023/01/08 00:05:38;;;;;;;7.53;3.85;;;10.20;99.90;;;;;;5098042;28;20040;-80
2023/01/08 00:08:04;;;;;;;5.57;3.28;;;10.20;99.90;;;;;;5097012;28;20327;-80
2023/01/08 00:10:30;;;;;;;6.43;3.60;;;10.20;99.90;;;;;;5131232;28;20057;-80
2023/01/08 00:12:55;;;;;;;6.85;3.90;;;10.20;99.90;;;;;;5098600;28;20480;-81
2023/01/08 00:15:21;;;;;;;6.88;4.00;;;10.20;99.90;;;;;;5110008;28;20028;-79
2023/01/08 00:17:47;;;;;;;6.70;3.92;;;10.30;99.90;;;;;;5091329;28;20047;-80
2023/01/08 00:20:13;;;;;;;6.82;4.05;;;10.20;99.90;;;;;;5092187;28;20051;-80
2023/01/08 00:22:38;;;;;;;8.60;4.32;;;10.20;99.90;;;;;;5099301;28;20110;-79
2023/01/08 00:25:05;;;;;;;7.35;4.47;;;10.20;99.90;;;;;;5146560;27;20126;-80
2023/01/08 00:27:31;;;;;;;7.13;3.92;;;10.20;99.90;;;;;;5130906;28;20072;-80
2023/01/08 00:29:56;;;;;;;7.38;4.00;;;10.20;99.90;;;;;;5129518;28;20066;-80
2023/01/08 00:32:22;;;;;;;7.22;3.72;;;10.20;99.90;;;;;;5101921;28;20035;-80
2023/01/08 00:34:48;;;;;;;7.35;3.88;;;10.20;99.90;;;;;;5075131;28;20089;-79
2023/01/08 00:37:17;;;;;;;7.05;4.28;;;10.20;99.90;;;;;;5109518;28;20097;-79
2023/01/08 00:39:43;;;;;;;8.30;3.88;;;10.20;99.90;;;;;;5129086;28;20039;-79
2023/01/08 00:42:09;;;;;;;6.85;4.00;;;10.20;99.90;;;;;;5111945;28;20032;-79
2023/01/08 00:44:35;;;;;;;7.43;4.20;;;10.30;99.90;;;;;;5111376;28;20514;-79
2023/01/08 00:47:00;;;;;;;7.32;3.92;;;10.30;99.90;;;;;;5132618;27;20043;-79
2023/01/08 00:49:26;;;;;;;6.28;3.50;;;10.30;99.90;;;;;;5115820;27;20045;-79
2023/01/08 00:51:52;;;;;;;6.00;3.80;;;10.30;99.90;;;;;;5149280;27;20047;-79
2023/01/08 00:54:17;;;;;;;6.53;3.80;;;10.30;99.90;;;;;;5134175;27;20039;-79
2023/01/08 00:56:43;;;;;;;6.68;4.05;;;10.30;99.90;;;;;;5116248;27;20046;-79
2023/01/08 00:59:09;;;;;;;7.25;4.28;;;10.30;99.90;;;;;;5115358;27;20042;-81
2023/01/08 01:01:35;;;;;;;6.65;3.70;;;10.30;99.90;;;;;;5095777;28;20115;-79
2023/01/08 01:04:01;;;;;;;6.20;3.83;;;10.30;99.90;;;;;;5095405;28;20487;-79
2023/01/08 01:06:26;;;;;;;10.52;4.35;;;10.30;99.90;;;;;;5113044;28;20118;-79
2023/01/08 01:08:52;;;;;;;7.97;4.25;;;10.30;99.90;;;;;;5095119;28;20040;-79
2023/01/08 01:11:21;;;;;;;7.53;4.10;;;10.20;99.90;;;;;;5113410;28;20071;-78
2023/01/08 01:13:47;;;;;;;6.70;3.67;;;10.20;99.90;;;;;;5094859;28;20071;-78
2023/01/08 01:16:13;;;;;;;7.15;3.65;;;10.20;99.90;;;;;;5146012;27;20041;-81
2023/01/08 01:18:39;;;;;;;7.10;3.40;;;10.20;99.90;;;;;;5115286;27;20039;-80
2023/01/08 01:21:26;;;;;;;6.78;3.88;;;10.20;99.90;;;;;;5098227;28;20071;-81
2023/01/08 01:23:54;;;;;;;6.10;3.10;;;10.20;99.90;;;;;;5085369;27;20055;-81
2023/01/08 01:26:21;;;;;;;6.05;3.33;;;10.10;99.90;;;;;;5133504;27;20100;-81
2023/01/08 01:28:51;;;;;;;6.05;3.30;;;10.10;99.90;;;;;;5133082;27;20375;-79
2023/01/08 01:31:18;;;;;;;8.18;3.72;;;10.00;99.90;;;;;;5094565;28;20074;-79
2023/01/08 01:33:44;;;;;;;7.85;3.08;;;9.90;99.90;;;;;;5113103;28;20031;-79
2023/01/08 01:36:12;;;;;;;8.10;2.97;;;9.80;99.90;;;;;;5112006;27;20035;-79
2023/01/08 01:38:38;;;;;;;8.75;2.88;;;9.70;99.90;;;;;;5149197;27;20046;-79
2023/01/08 01:41:04;;;;;;;8.98;2.35;;;9.70;99.90;;;;;;5114849;27;20788;-79
2023/01/08 01:43:39;;;;;;;8.20;2.00;;;9.60;99.90;;;;;;5133233;27;20114;-79
2023/01/08 01:46:23;;;;;;;9.63;2.13;;;9.40;99.90;;;;;;5111727;27;20358;-78
2023/01/08 01:48:52;;;;;;;8.45;2.08;;;9.40;99.90;;;;;;5113715;27;20054;-78
2023/01/08 01:51:19;;;;;;;7.18;2.00;;;9.30;99.90;;;;;;5114135;27;20035;-78
2023/01/08 01:53:45;;;;;;;8.07;1.92;;;9.30;99.90;;;;;;5114852;27;20391;-78
2023/01/08 01:56:11;;;;;;;8.30;1.92;;;9.20;99.90;;;;;;5112051;28;20459;-78
2023/01/08 01:58:37;;;;;;;8.10;2.15;;;9.10;99.90;;;;;;5093098;28;20043;-79
2023/01/08 02:01:08;;;;;;;9.02;1.90;;;9.10;99.90;;;;;;5096415;27;20502;-79
2023/01/08 02:03:39;;;;;;;8.70;1.90;;;9.00;99.90;;;;;;5127813;27;20043;-79
2023/01/08 02:06:35;;;;;;;10.88;2.00;;;9.00;99.90;;;;;;5110203;27;20046;-78
2023/01/08 02:09:04;;;;;;;9.82;2.40;;;9.00;99.90;;;;;;5131748;27;20039;-79
2023/01/08 02:12:15;;;;;;;11.30;2.67;;;8.90;99.90;;;;;;5113896;27;20105;-79
2023/01/08 02:15:15;;;;;;;11.10;2.40;;;8.90;99.90;;;;;;5132509;27;20090;-79
2023/01/08 02:18:05;;;;;;;10.20;2.83;;;8.90;99.90;;;;;;5012666;28;20084;-79
2023/01/08 02:20:40;;;;;;;10.00;2.50;;;8.90;99.90;;;;;;5048708;28;20033;-79
2023/01/08 02:23:36;;;;;;;11.15;2.40;;;8.90;99.90;;;;;;5046702;28;20488;-79
2023/01/08 02:26:21;;;;;;;13.27;2.83;;;8.80;99.90;;;;;;5031730;28;20044;-80
2023/01/08 02:29:12;;;;;;;10.35;2.53;;;8.80;99.90;;;;;;5064300;28;20053;-79
2023/01/08 02:31:40;;;;;;;11.60;2.53;;;8.80;99.90;;;;;;5048833;28;20049;-79
2023/01/08 02:34:07;;;;;;;13.77;2.83;;;8.80;99.90;;;;;;5030960;28;20107;-79
2023/01/08 02:36:47;;;;;;;10.70;2.47;;;8.80;99.90;;;;;;5031895;28;20502;-79
2023/01/08 02:39:27;;;;;;;9.88;2.58;;;8.80;99.90;;;;;;5045485;28;20073;-79
2023/01/08 02:42:21;;;;;;;14.43;2.60;;;8.80;99.90;;;;;;5011790;28;20136;-79
2023/01/08 02:45:12;;;;;;;14.38;2.95;;;8.70;99.90;;;;;;5027674;28;20132;-79
2023/01/08 02:47:44;;;;;;;11.65;2.72;;;8.70;99.90;;;;;;5048769;28;20586;-79
2023/01/08 02:50:29;;;;;;;11.57;2.67;;;8.70;99.90;;;;;;5036436;28;20041;-78
2023/01/08 02:53:00;;;;;;;9.95;2.67;;;8.70;99.90;;;;;;5011930;28;20055;-79
2023/01/08 02:55:27;;;;;;;9.02;2.47;;;8.60;99.90;;;;;;5084722;28;20043;-79
2023/01/08 02:57:53;;;;;;;10.23;2.30;;;8.70;99.90;;;;;;5111690;27;20084;-79
2023/01/08 03:00:19;;;;;;;11.57;2.90;;;8.60;99.90;;;;;;5131437;27;20478;-79
2023/01/08 03:02:46;;;;;;;10.63;2.65;;;8.60;99.90;;;;;;5131695;27;20368;-79
2023/01/08 03:05:22;;;;;;;10.80;2.42;;;8.60;99.90;;;;;;5119861;27;20043;-79
2023/01/08 03:07:48;;;;;;;10.23;2.33;;;8.60;99.90;;;;;;5107197;27;20073;-79
2023/01/08 03:10:14;;;;;;;9.43;2.45;;;8.60;99.90;;;;;;5112525;27;20067;-79
2023/01/08 03:12:50;;;;;;;9.50;2.67;;;8.50;99.90;;;;;;5093436;28;20092;-79
2023/01/08 03:15:23;;;;;;;8.57;2.45;;;8.50;99.90;;;;;;5092923;28;20232;-79
2023/01/08 03:17:52;;;;;;;8.07;2.60;;;8.50;99.90;;;;;;5109408;27;20047;-80
2023/01/08 03:20:21;;;;;;;7.13;2.72;;;8.50;99.90;;;;;;5094736;28;20043;-79
2023/01/08 03:22:51;;;;;;;8.02;2.83;;;8.50;99.90;;;;;;5092257;28;20213;-79
2023/01/08 03:25:21;;;;;;;9.05;3.20;;;8.50;99.90;;;;;;5137397;27;20457;-79
2023/01/08 03:27:53;;;;;;;9.15;3.20;;;8.50;99.90;;;;;;5125936;27;20385;-80
2023/01/08 03:30:20;;;;;;;8.43;3.50;;;8.50;99.90;;;;;;5126850;27;20367;-79
2023/01/08 03:32:47;;;;;;;7.15;3.40;;;8.40;99.90;;;;;;5100675;27;20031;-79
2023/01/08 03:35:16;;;;;;;9.57;3.65;;;8.50;99.90;;;;;;5131088;27;20050;-79
2023/01/08 03:37:45;;;;;;;10.85;3.80;;;8.40;99.90;;;;;;5112741;27;20075;-79
2023/01/08 03:40:21;;;;;;;9.02;3.90;;;8.40;99.90;;;;;;5111232;27;20048;-79
2023/01/08 03:42:47;;;;;;;9.02;3.97;;;8.50;99.90;;;;;;5107518;27;20043;-79
2023/01/08 03:45:12;;;;;;;7.93;4.40;;;8.50;99.90;;;;;;5112560;27;20046;-79
2023/01/08 03:47:40;;;;;;;7.88;4.13;;;8.60;99.90;;;;;;5112673;27;20504;-80
2023/01/08 03:50:11;;;;;;;10.27;5.63;;;8.70;99.90;;;;;;5130656;27;20114;-79
2023/01/08 03:52:37;;;;;;;10.13;4.90;;;8.70;99.90;;;;;;5131487;27;20046;-79
2023/01/08 03:55:03;;;;;;;9.00;5.43;;;8.80;99.90;;;;;;5111154;28;20031;-79
2023/01/08 03:57:28;;;;;;;9.13;5.20;;;8.90;99.90;;;;;;5110848;28;20066;-79
2023/01/08 03:59:54;;;;;;;9.05;5.30;;;9.00;99.90;;;;;;5091970;28;20070;-80
2023/01/08 04:02:20;;;;;;;8.32;4.30;;;9.00;99.90;;;;;;5096771;28;20031;-80
2023/01/08 04:04:46;;;;;;;10.30;4.57;;;9.10;99.90;;;;;;5112696;28;20496;-80
2023/01/08 04:07:12;;;;;;;7.82;3.70;;;9.10;99.90;;;;;;5112095;28;20047;-80
2023/01/08 04:09:38;;;;;;;7.30;3.60;;;9.20;99.90;;;;;;5112632;28;20043;-80
2023/01/08 04:12:04;;;;;;;9.77;3.95;;;9.10;99.90;;;;;;5130080;28;20043;-80
2023/01/08 04:14:30;;;;;;;8.82;3.63;;;9.20;99.90;;;;;;5093404;28;20075;-80
2023/01/08 04:16:55;;;;;;;6.82;3.30;;;9.20;99.90;;;;;;5102161;28;20077;-80
2023/01/08 04:19:21;;;;;;;7.22;3.15;;;9.20;99.90;;;;;;5112223;28;20046;-80
2023/01/08 04:21:52;;;;;;;6.38;2.80;;;9.20;99.90;;;;;;5114707;27;20035;-80
2023/01/08 04:24:18;;;;;;;7.50;3.00;;;9.20;99.90;;;;;;5115757;27;20134;-80
2023/01/08 04:26:45;;;;;;;7.13;2.83;;;9.20;99.90;;;;;;5149584;27;20053;-80
2023/01/08 04:29:11;;;;;;;7.63;2.70;;;9.20;99.90;;;;;;5133218;27;20039;-79
2023/01/08 04:31:37;;;;;;;8.15;3.17;;;9.10;99.90;;;;;;5116512;27;20039;-80
2023/01/08 04:34:03;;;;;;;7.22;2.92;;;9.10;99.90;;;;;;5116028;27;20035;-79
2023/01/08 04:36:29;;;;;;;6.68;2.80;;;9.10;99.90;;;;;;5135146;27;20100;-79
2023/01/08 04:38:54;;;;;;;7.13;2.88;;;9.10;99.90;;;;;;5115546;27;20066;-80
2023/01/08 04:41:20;;;;;;;7.47;3.40;;;9.10;99.90;;;;;;5111056;27;20035;-80
2023/01/08 04:43:45;;;;;;;5.35;2.78;;;9.00;99.90;;;;;;5133077;27;20091;-80
2023/01/08 04:46:11;;;;;;;7.93;3.00;;;9.00;99.90;;;;;;5115664;27;20115;-80
2023/01/08 04:48:37;;;;;;;7.65;3.20;;;9.00;99.90;;;;;;5116258;27;20038;-80
2023/01/08 04:51:03;;;;;;;8.02;3.10;;;9.00;99.90;;;;;;5115979;27;20403;-80
2023/01/08 04:53:32;;;;;;;7.20;3.00;;;8.90;99.90;;;;;;5116017;27;20387;-80
2023/01/08 04:56:09;;;;;;;6.35;3.20;;;8.90;99.90;;;;;;5114243;27;20117;-80
2023/01/08 04:58:36;;;;;;;7.68;3.10;;;8.90;99.90;;;;;;5102087;28;20043;-80
2023/01/08 05:01:13;;;;;;;6.72;3.10;;;8.90;99.90;;;;;;5095040;28;20051;-80
2023/01/08 05:03:39;;;;;;;7.15;3.03;;;8.90;99.90;;;;;;5078588;28;20039;-80
2023/01/08 05:06:06;;;;;;;6.50;2.80;;;8.90;99.90;;;;;;5116825;27;20383;-80
2023/01/08 05:08:31;;;;;;;7.05;3.05;;;8.90;99.90;;;;;;5134347;27;20087;-80
2023/01/08 05:11:01;;;;;;;6.97;3.00;;;8.90;99.90;;;;;;5114627;27;20039;-80
2023/01/08 05:13:27;;;;;;;7.32;3.28;;;8.90;99.90;;;;;;5111914;27;20429;-80
2023/01/08 05:15:57;;;;;;;8.60;3.60;;;8.90;99.90;;;;;;5115376;27;20051;-80
2023/01/08 05:18:22;;;;;;;7.57;3.50;;;8.80;99.90;;;;;;5115639;27;20386;-80
2023/01/08 05:20:48;;;;;;;8.00;3.35;;;8.80;99.90;;;;;;5114752;27;20043;-80
2023/01/08 05:23:14;;;;;;;8.68;3.25;;;8.80;99.90;;;;;;5111504;28;20051;-79
2023/01/08 05:25:40;;;;;;;6.80;3.00;;;8.80;99.90;;;;;;5104073;28;20083;-78
2023/01/08 05:28:05;;;;;;;7.30;3.63;;;8.70;99.90;;;;;;5074179;28;20067;-79
2023/01/08 05:30:31;;;;;;;6.95;3.08;;;8.70;99.90;;;;;;5093147;28;20044;-79
2023/01/08 05:32:56;;;;;;;7.15;3.00;;;8.70;99.90;;;;;;5091437;28;20044;-79
2023/01/08 05:35:22;;;;;;;7.68;2.95;;;8.70;99.90;;;;;;5090731;28;20036;-79
2023/01/08 05:37:48;;;;;;;8.20;3.33;;;8.70;99.90;;;;;;5091016;28;20036;-80
2023/01/08 05:40:13;;;;;;;7.32;3.53;;;8.70;99.90;;;;;;5096466;28;20044;-79
2023/01/08 05:42:39;;;;;;;8.80;3.95;;;8.70;99.90;;;;;;5084464;28;20059;-79
2023/01/08 05:45:06;;;;;;;8.13;4.20;;;8.60;99.90;;;;;;5110904;28;20046;-79
2023/01/08 05:47:32;;;;;;;9.55;4.80;;;8.60;99.90;;;;;;5112885;28;20542;-79
2023/01/08 05:49:58;;;;;;;8.23;4.40;;;8.70;99.90;;;;;;5112205;28;20388;-79
2023/01/08 05:52:24;;;;;;;8.88;4.70;;;8.60;99.90;;;;;;5111450;28;20035;-79
2023/01/08 05:54:50;;;;;;;8.00;4.63;;;8.60;99.90;;;;;;5109700;28;20510;-79
2023/01/08 05:57:15;;;;;;;10.18;4.70;;;8.60;99.90;;;;;;5124994;27;20518;-79
2023/01/08 05:59:41;;;;;;;8.80;4.45;;;8.60;99.90;;;;;;5092615;28;20456;-79
2023/01/08 06:02:07;;;;;;;8.85;4.10;;;8.60;99.90;;;;;;5092423;28;20040;-79
2023/01/08 06:04:33;;;;;;;8.90;4.20;;;8.60;99.90;;;;;;5091542;28;20032;-80
2023/01/08 06:06:58;;;;;;;7.45;3.80;;;8.60;99.90;;;;;;5090571;28;20496;-79
2023/01/08 06:09:24;;;;;;;8.82;3.75;;;8.60;99.90;;;;;;5090862;28;20432;-79
2023/01/08 06:11:50;;;;;;;11.90;3.83;;;8.50;99.90;;;;;;5091354;28;20067;-79
2023/01/08 06:14:16;;;;;;;7.18;3.28;;;8.50;99.90;;;;;;5106825;28;20572;-79
2023/01/08 06:16:45;;;;;;;7.57;3.00;;;8.50;99.90;;;;;;5108753;28;20040;-80
2023/01/08 06:19:11;;;;;;;9.18;3.03;;;8.50;99.90;;;;;;5110382;28;20043;-79
2023/01/08 06:21:37;;;;;;;9.43;3.05;;;8.50;99.90;;;;;;5112221;28;20161;-79
2023/01/08 06:24:03;;;;;;;7.90;2.70;;;8.50;99.90;;;;;;5108216;28;20465;-79
2023/01/08 06:26:29;;;;;;;9.27;2.90;;;8.50;99.90;;;;;;5091961;28;20059;-79
2023/01/08 06:28:54;;;;;;;8.70;2.90;;;8.50;99.90;;;;;;5104687;28;20063;-79
2023/01/08 06:31:20;;;;;;;7.45;2.70;;;8.50;99.90;;;;;;5099420;28;20122;-79
2023/01/08 06:33:46;;;;;;;8.18;2.70;;;8.40;99.90;;;;;;5104550;28;20038;-79
2023/01/08 06:36:11;;;;;;;8.88;2.67;;;8.40;99.90;;;;;;5107023;28;20475;-79
2023/01/08 06:38:37;;;;;;;8.55;2.70;;;8.40;99.90;;;;;;5103910;27;20036;-82
2023/01/08 06:41:09;;;;;;;7.75;2.58;;;8.40;99.90;;;;;;5108073;27;20035;-78
2023/01/08 06:43:35;;;;;;;9.50;2.78;;;8.40;99.90;;;;;;5107214;28;20036;-78
2023/01/08 06:46:01;;;;;;;8.55;2.35;;;8.40;99.90;;;;;;5110015;28;20431;-78
2023/01/08 06:48:27;;;;;;;7.90;2.30;;;8.30;99.90;;;;;;5098139;27;20035;-78
2023/01/08 06:50:53;;;;;;;7.50;2.13;;;8.30;99.90;;;;;;5105075;28;20039;-79
2023/01/08 06:53:19;;;;;;;8.40;2.60;;;8.30;99.90;;;;;;5102646;27;20122;-80
2023/01/08 06:55:45;;;;;;;8.40;2.50;;;8.30;99.90;;;;;;5108394;28;20036;-77
2023/01/08 06:58:11;;;;;;;8.48;2.50;;;8.30;99.90;;;;;;5092225;28;20036;-77
2023/01/08 07:00:37;;;;;;;6.90;2.10;;;8.30;99.90;;;;;;5106257;28;20044;-76
2023/01/08 07:03:03;;;;;;;9.80;2.60;;;8.30;99.90;;;;;;5110181;28;20105;-77
2023/01/08 07:05:29;;;;;;;9.90;2.70;;;8.30;99.90;;;;;;5109783;28;20508;-78
2023/01/08 07:07:55;;;;;;;7.82;2.15;;;8.30;99.90;;;;;;5109488;28;20035;-78
2023/01/08 07:10:20;;;;;;;9.10;2.60;;;8.20;99.90;;;;;;5107734;28;20486;-79
2023/01/08 07:12:47;;;;;;;8.38;2.50;;;8.30;99.90;;;;;;5102401;28;20044;-79
2023/01/08 07:15:12;;;;;;;7.55;2.40;;;8.20;99.90;;;;;;5108244;28;20048;-78
2023/01/08 07:17:38;;;;;;;9.13;2.50;;;8.20;99.90;;;;;;5105831;28;20119;-78
2023/01/08 07:20:04;;;;;;;8.73;2.47;;;8.20;99.90;;;;;;5099806;28;20096;-78
2023/01/08 07:22:30;;;;;;;10.82;2.40;;;8.20;99.90;;;;;;5109376;28;20506;-77
2023/01/08 07:24:56;;;;;;;8.32;2.53;;;8.10;99.90;;;;;;5106040;28;20055;-78
2023/01/08 07:27:21;;;;;;;8.05;2.83;;;8.20;99.90;;;;;;5092154;28;20086;-78
2023/01/08 07:29:47;;;;;;;7.90;2.45;;;8.20;99.90;;;;;;5107952;27;20100;-78
2023/01/08 07:32:12;;;;;;;8.18;2.40;;;8.20;99.90;;;;;;5104383;28;20044;-78
2023/01/08 07:34:38;;;;;;;6.70;2.40;;;8.20;99.90;;;;;;5109188;28;20051;-77
2023/01/08 07:37:04;;;;;;;9.32;2.70;;;8.20;99.90;;;;;;5108554;28;20166;-78
2023/01/08 07:39:30;;;;;;;7.15;2.67;;;8.30;99.90;;;;;;5095007;28;20669;-78
2023/01/08 07:41:56;;;;;;;9.23;2.83;;;8.20;99.90;;;;;;5105036;28;20043;-78
2023/01/08 07:44:22;;;;;;;8.95;2.80;;;8.20;99.90;;;;;;5096492;28;20104;-78
2023/01/08 07:46:47;;;;;;;7.38;2.83;;;8.20;99.90;;;;;;5100857;28;20031;-78
2023/01/08 07:49:13;;;;;;;8.70;3.08;;;8.20;99.90;;;;;;5109800;28;20042;-77
2023/01/08 07:51:38;;;;;;;10.00;3.75;;;8.10;99.90;;;;;;5108176;28;20043;-78
2023/01/08 07:54:04;;;;;;;9.63;3.40;;;8.10;99.90;;;;;;5108892;28;20510;-77
2023/01/08 07:56:30;;;;;;;11.27;3.70;;;8.00;99.90;;;;;;5105261;28;20039;-77
2023/01/08 07:58:55;;;;;;;10.13;3.75;;;8.00;99.90;;;;;;5103995;28;20036;-77
2023/01/08 08:01:21;;;;;;;11.18;4.00;;;8.00;99.90;;;;;;5105524;28;20072;-77
2023/01/08 08:03:47;;;;;;;9.55;3.58;;;8.00;99.90;;;;;;5106919;28;20085;-77
2023/01/08 08:06:12;;;;;;;9.40;3.60;;;8.00;99.90;;;;;;5105867;28;20081;-77
2023/01/08 08:08:38;;;;;;;14.32;4.18;;;7.90;99.90;;;;;;5098523;28;20043;-77
2023/01/08 08:11:04;;;;;;;12.38;3.80;;;7.90;99.90;;;;;;5094685;28;20039;-81
2023/01/08 08:13:30;;;;;;;9.63;3.75;;;7.80;99.90;;;;;;5107429;28;20034;-79
2023/01/08 08:16:03;;;;;;;10.02;3.22;;;7.80;99.90;;;;;;5106023;28;20040;-79
2023/01/08 08:18:29;;;;;;;8.35;3.00;;;7.80;99.90;;;;;;5102949;28;20463;-79
2023/01/08 08:20:54;;;;;;;10.38;3.75;;;7.70;99.90;;;;;;5134783;27;20118;-79
2023/01/08 08:23:20;;;;;;;10.43;3.67;;;7.70;99.90;;;;;;5112022;28;20043;-79
2023/01/08 08:25:46;;;;;;;9.32;3.53;;;7.60;99.90;;;;;;5130270;28;20047;-79
2023/01/08 08:28:11;;;;;;;8.77;3.20;;;7.60;99.90;;;;;;5113692;28;20039;-80
2023/01/08 08:30:37;;;;;;;8.70;3.00;;;7.60;99.90;;;;;;5108743;28;20093;-79
2023/01/08 08:33:05;;;;;;;4.68;1.65;;;7.60;99.90;;;;;;5108126;28;20131;-79
2023/01/08 08:35:32;;;;;;;9.55;2.97;;;7.60;99.90;;;;;;5108301;28;20545;-79
2023/01/08 08:37:58;;;;;;;9.43;2.97;;;7.60;99.90;;;;;;5119760;28;20075;-79
2023/01/08 08:40:24;;;;;;;8.35;3.08;;;7.60;99.90;;;;;;5108227;28;20098;-79
2023/01/08 08:43:01;;;;;;;9.45;2.75;;;7.60;99.90;;;;;;5108111;28;20040;-79
2023/01/08 08:45:27;;;;;;;10.43;3.10;;;7.60;99.90;;;;;;5108214;28;20392;-80
2023/01/08 08:47:53;;;;;;;7.85;3.00;;;7.60;99.90;;;;;;5108353;28;20392;-79
2023/01/08 08:50:19;;;;;;;9.55;3.00;;;7.60;99.90;;;;;;5095391;28;20042;-78
2023/01/08 08:52:47;;;;;;;8.60;2.80;;;7.60;99.90;;;;;;5104577;28;20043;-79
2023/01/08 08:55:15;;;;;;;8.73;3.38;;;7.60;99.90;;;;;;5109395;28;20040;-78
2023/01/08 08:57:42;;;;;;;9.80;2.95;;;7.60;99.90;;;;;;5106942;28;20096;-79
2023/01/08 09:00:08;;;;;;;6.72;2.70;;;7.70;99.90;;;;;;5090406;28;20039;-78
2023/01/08 09:02:33;;;;;;;9.35;2.70;;;7.70;99.90;;;;;;5108578;28;20032;-79
2023/01/08 09:04:59;;;;;;;8.13;2.92;;;7.70;99.90;;;;;;5104566;28;20044;-81
2023/01/08 09:07:25;;;;;;;7.72;2.67;;;7.70;99.90;;;;;;5097520;28;20043;-81
2023/01/08 09:09:50;;;;;;;7.38;2.42;;;7.70;99.90;;;;;;5091895;28;20507;-81
2023/01/08 09:12:16;;;;;;;8.07;2.63;;;7.70;99.90;;;;;;5093016;28;20043;-81
2023/01/08 09:14:41;;;;;;;7.82;2.38;;;7.80;99.90;;;;;;5091678;28;20044;-81
2023/01/08 09:17:07;;;;;;;7.85;2.47;;;7.80;99.90;;;;;;5091187;28;20036;-81
2023/01/08 09:19:33;;;;;;;8.55;2.50;;;7.80;99.90;;;;;;5097311;28;20191;-81
2023/01/08 09:22:00;;;;;;;7.70;2.38;;;7.90;99.90;;;;;;5111799;28;20035;-81
2023/01/08 09:24:25;;;;;;;8.77;2.88;;;7.90;99.90;;;;;;5129294;27;20063;-81
2023/01/08 09:26:53;;;;;;;8.13;2.58;;;7.90;99.90;;;;;;5133658;27;20130;-81
2023/01/08 09:29:19;;;;;;;7.13;2.70;;;8.00;99.90;;;;;;5133052;27;20122;-81
2023/01/08 09:31:45;;;;;;;8.63;2.47;;;8.00;99.90;;;;;;5133525;27;20122;-81
2023/01/08 09:34:11;;;;;;;8.23;2.55;;;8.00;99.90;;;;;;5114047;27;20035;-81
2023/01/08 09:36:37;;;;;;;9.05;2.20;;;8.00;99.90;;;;;;5115587;27;20050;-81
2023/01/08 09:39:03;;;;;;;8.98;2.50;;;8.00;99.90;;;;;;5149415;27;20487;-82
2023/01/08 09:41:34;;;;;;;7.18;2.50;;;8.10;99.90;;;;;;5114754;27;20084;-81
2023/01/08 09:44:01;;;;;;;;;;;8.10;99.90;;;;;;5133750;27;20043;-81
2023/01/08 09:46:28;;;;;;;8.50;2.60;;;8.10;99.90;;;;;;5133134;27;19919;-81
2023/01/08 09:48:59;;;;;;;10.40;2.72;;;8.10;99.90;;;;;;5113722;27;20118;-80
2023/01/08 09:51:38;;;;;;;9.48;2.80;;;8.20;99.90;;;;;;5114665;27;20035;-81
2023/01/08 09:54:06;;;;;;;10.25;2.50;;;8.20;99.90;;;;;;5114507;27;20078;-80
2023/01/08 09:56:35;;;;;;;10.07;2.40;;;8.20;99.90;;;;;;5114291;27;20042;-81
2023/01/08 09:59:03;;;;;;;8.48;2.30;;;8.20;99.90;;;;;;5132737;27;20062;-81
2023/01/08 10:01:33;;;;;;;10.55;2.60;;;8.30;99.90;;;;;;5133292;27;20043;-81
2023/01/08 10:04:05;;;;;;;8.02;2.60;;;8.30;99.90;;;;;;5147680;27;20421;-81
2023/01/08 10:06:31;;;;;;;10.95;2.80;;;8.30;99.90;;;;;;5121596;27;20046;-81
2023/01/08 10:08:57;;;;;;;10.18;2.40;;;8.30;99.90;;;;;;5112107;28;20395;-80
2023/01/08 10:11:25;;;;;;;11.68;2.53;;;8.30;99.90;;;;;;5093605;28;20437;-81
2023/01/08 10:13:54;;;;;;;11.77;3.22;;;8.40;99.90;;;;;;5127982;27;20047;-81
2023/01/08 10:16:29;;;;;;;9.52;2.50;;;8.40;99.90;;;;;;5111278;28;20230;-80
2023/01/08 10:18:56;;;;;;;9.40;2.80;;;8.40;99.90;;;;;;5110035;28;20082;-80
2023/01/08 10:21:28;;;;;;;9.77;2.45;;;8.40;99.90;;;;;;5126929;27;20054;-81
2023/01/08 10:23:54;;;;;;;11.77;3.30;;;8.50;99.90;;;;;;5093441;28;20043;-81
2023/01/08 10:26:29;;;;;;;11.98;2.85;;;8.50;99.90;;;;;;5111678;28;20055;-81
2023/01/08 10:29:11;;;;;;;13.57;3.40;;;8.50;99.90;;;;;;5111814;28;20071;-83
2023/01/08 10:31:47;;;;;;;10.73;3.00;;;8.50;99.90;;;;;;5093852;28;20122;-80
2023/01/08 10:34:31;;;;;;;12.52;2.97;;;8.60;99.90;;;;;;5111627;28;20079;-81
2023/01/08 10:36:57;;;;;;;11.07;3.05;;;8.60;99.90;;;;;;5128165;27;20048;-81
2023/01/08 10:39:26;;;;;;;12.60;3.03;;;8.60;99.90;;;;;;5111617;28;20369;-80
2023/01/08 10:41:56;;;;;;;9.80;2.63;;;8.60;99.90;;;;;;5076533;28;20036;-81
2023/01/08 10:44:23;;;;;;;11.27;2.83;;;8.60;99.90;;;;;;5093524;28;20394;-81
2023/01/08 10:46:53;;;;;;;10.13;2.80;;;8.60;99.90;;;;;;5110067;28;20125;-81
2023/01/08 10:49:35;;;;;;;12.50;2.90;;;8.60;99.90;;;;;;5093199;28;20046;-81
2023/01/08 10:52:01;;;;;;;13.18;2.90;;;8.70;99.90;;;;;;5111174;27;20104;-81
2023/01/08 10:54:35;;;;;;;9.90;2.80;;;8.70;99.90;;;;;;5092607;28;20039;-81
2023/01/08 10:57:01;;;;;;;12.75;2.95;;;8.70;99.90;;;;;;5093294;28;20040;-81
2023/01/08 10:59:27;;;;;;;9.77;3.15;;;8.70;99.90;;;;;;5093337;28;20035;-81
2023/01/08 11:01:57;;;;;;;12.95;3.00;;;8.70;99.90;;;;;;5092942;28;20036;-81
2023/01/08 11:04:32;;;;;;;11.15;3.15;;;8.70;99.90;;;;;;5092814;28;20088;-80
2023/01/08 11:07:05;;;;;;;11.80;2.80;;;8.80;99.90;;;;;;5110907;28;20035;-81
2023/01/08 11:09:44;;;;;;;11.05;2.70;;;8.80;99.90;;;;;;5092847;28;20043;-81
2023/01/08 11:12:29;;;;;;;11.68;3.10;;;8.80;99.90;;;;;;5092768;28;20048;-81
2023/01/08 11:14:55;;;;;;;10.23;2.85;;;8.80;99.90;;;;;;5092317;28;20063;-81
2023/01/08 11:17:24;;;;;;;12.52;2.90;;;8.90;99.90;;;;;;5111144;28;20466;-81
2023/01/08 11:19:50;;;;;;;10.32;2.78;;;8.90;99.90;;;;;;5092604;28;20502;-81
2023/01/08 11:22:20;;;;;;;13.20;2.92;;;8.90;99.90;;;;;;5092386;28;20036;-81
2023/01/08 11:24:48;;;;;;;10.27;2.75;;;8.90;99.90;;;;;;5091976;28;20096;-80
2023/01/08 11:27:36;;;;;;;10.48;2.55;;;9.00;99.90;;;;;;5092588;28;20112;-80
2023/01/08 11:30:16;;;;;;;10.93;2.80;;;9.00;99.90;;;;;;5094787;28;20068;-80
2023/01/08 11:32:53;;;;;;;9.20;2.80;;;9.00;99.90;;;;;;5112930;27;20037;-81
2023/01/08 11:35:25;;;;;;;8.98;2.65;;;9.00;99.90;;;;;;5131049;27;20039;-81
2023/01/08 11:37:58;;;;;;;12.43;2.92;;;8.90;99.90;;;;;;5130819;27;20039;-81
2023/01/08 11:40:32;;;;;;;12.10;2.60;;;8.90;99.90;;;;;;5131201;27;20079;-81
2023/01/08 11:43:22;;;;;;;12.10;2.85;;;9.00;99.90;;;;;;5112627;27;20043;-81
2023/01/08 11:46:09;;;;;;;12.00;3.13;;;9.10;99.90;;;;;;5131146;27;20110;-81
2023/01/08 11:49:10;;;;;;;9.18;2.67;;;9.20;99.90;;;;;;5137465;27;20046;-81
2023/01/08 11:51:48;;;;;;;9.98;3.00;;;9.30;99.90;;;;;;5075800;28;20125;-81
2023/01/08 11:54:29;;;;;;;11.45;3.15;;;9.40;99.90;;;;;;5110396;28;20035;-81
2023/01/08 11:57:26;;;;;;;12.88;3.60;;;9.40;99.90;;;;;;5092204;28;20040;-81
2023/01/08 12:00:00;;;;;;;10.13;3.40;;;9.40;99.90;;;;;;5092077;28;20109;-81
2023/01/08 12:02:44;;;;;;;10.52;3.13;;;9.50;99.90;;;;;;5092118;28;20040;-81
2023/01/08 12:05:26;;;;;;;10.88;2.85;;;9.50;99.90;;;;;;5092082;28;20056;-81
2023/01/08 12:08:05;;;;;;;55.85;49.83;;;9.60;99.90;;;;;;5125802;28;20042;-83
2023/01/08 12:10:42;;;;;;;12.48;3.55;;;9.60;99.90;;;;;;5092608;28;20047;-81
2023/01/08 12:13:20;;;;;;;12.27;3.45;;;9.70;99.90;;;;;;5091793;28;20047;-80
2023/01/08 12:16:14;;;;;;;12.05;3.10;;;9.70;99.90;;;;;;5105712;28;20130;-80
2023/01/08 12:18:45;;;;;;;11.55;2.88;;;9.70;99.90;;;;;;5130978;28;20172;-81
2023/01/08 12:21:17;;;;;;;;;;;9.70;99.90;;;;;;5130898;28;20050;-81
2023/01/08 12:24:14;;;;;;;11.15;3.15;;;9.80;99.90;;;;;;5110757;28;20054;-80
2023/01/08 12:27:22;;;;;;;11.13;3.00;;;9.70;99.90;;;;;;5119817;28;20047;-79
2023/01/08 12:30:16;;;;;;;11.07;2.80;;;9.80;99.90;;;;;;5103023;28;20085;-79
2023/01/08 12:33:01;;;;;;;11.10;3.10;;;9.80;99.90;;;;;;5109899;28;20046;-79
2023/01/08 12:35:39;;;;;;;11.43;2.88;;;9.80;99.90;;;;;;5101116;28;20453;-79
2023/01/08 12:38:32;;;;;;;10.43;3.00;;;9.80;99.90;;;;;;5127263;28;20043;-81
2023/01/08 12:41:02;;;;;;;11.63;3.10;;;9.70;99.90;;;;;;5108703;27;20039;-79
2023/01/08 12:43:34;;;;;;;10.43;2.92;;;9.70;99.90;;;;;;5134061;27;20035;-80
2023/01/08 12:46:02;;;;;;;9.98;2.50;;;9.70;99.90;;;;;;5150346;27;20055;-79
2023/01/08 12:48:31;;;;;;;11.95;3.20;;;9.80;99.90;;;;;;5115592;27;20114;-78
2023/01/08 12:51:24;;;;;;;11.07;3.08;;;9.80;99.90;;;;;;5132412;27;20107;-79
2023/01/08 12:54:06;;;;;;;11.05;2.70;;;9.70;99.90;;;;;;5131828;27;20065;-79
2023/01/08 12:56:47;;;;;;;9.75;2.97;;;9.70;99.90;;;;;;5122655;27;20563;-79
2023/01/08 12:59:33;;;;;;;9.38;3.00;;;9.70;99.90;;;;;;5120901;27;20042;-79
2023/01/08 13:02:09;;;;;;;11.68;2.70;;;9.70;99.90;;;;;;5133499;27;20444;-79
2023/01/08 13:04:46;;;;;;;9.88;2.65;;;9.70;99.90;;;;;;5123027;27;20035;-80
2023/01/08 13:07:16;;;;;;;10.30;2.58;;;9.60;99.90;;;;;;5114385;27;20078;-80